sensor_id;sensor_type;location;lat;lon;timestamp;pressure;altitude;pressure_sealevel;temperature;humidity
7480;BME280;3781;42.272;22.658;2023-02-12T00:01:20;95557.28;;;-2.27;62.75
7480;BME280;3781;42.272;22.658;2023-02-12T00:03:49;95481.97;;;-3.08;63.44
7480;BME280;3781;42.272;22.658;2023-02-12T00:06:16;95573.53;;;-2.71;63.96
7480;BME280;3781;42.272;22.658;2023-02-12T00:08:42;95575.50;;;-2.85;64.93
7480;BME280;3781;42.272;22.658;2023-02-12T00:11:10;95563.03;;;-2.95;65.30
7480;BME280;3781;42.272;22.658;2023-02-12T00:13:37;95583.78;;;-3.17;67.06
7480;BME280;3781;42.272;22.658;2023-02-12T00:16:06;95575.81;;;-3.43;68.93
7480;BME280;3781;42.272;22.658;2023-02-12T00:18:33;95570.09;;;-3.54;69.64
7480;BME280;3781;42.272;22.658;2023-02-12T00:21:02;95542.72;;;-3.84;70.67
7480;BME280;3781;42.272;22.658;2023-02-12T00:23:29;95584.66;;;-3.65;71.72
7480;BME280;3781;42.272;22.658;2023-02-12T00:25:55;95592.34;;;-3.68;73.52
7480;BME280;3781;42.272;22.658;2023-02-12T00:28:22;95595.91;;;-3.76;75.02
7480;BME280;3781;42.272;22.658;2023-02-12T00:30:49;95553.34;;;-4.11;76.74
7480;BME280;3781;42.272;22.658;2023-02-12T00:33:16;95588.03;;;-4.13;78.43
7480;BME280;3781;42.272;22.658;2023-02-12T00:35:43;95594.63;;;-4.03;77.88
7480;BME280;3781;42.272;22.658;2023-02-12T00:38:11;95533.47;;;-4.38;78.10
7480;BME280;3781;42.272;22.658;2023-02-12T00:40:38;95595.44;;;-4.01;78.59
7480;BME280;3781;42.272;22.658;2023-02-12T00:43:04;95582.97;;;-4.15;79.99
7480;BME280;3781;42.272;22.658;2023-02-12T00:45:31;95578.06;;;-4.25;81.38
7480;BME280;3781;42.272;22.658;2023-02-12T00:47:58;95554.78;;;-4.48;82.24
7480;BME280;3781;42.272;22.658;2023-02-12T00:50:25;95584.09;;;-4.32;82.82
7480;BME280;3781;42.272;22.658;2023-02-12T00:52:51;95562.31;;;-4.45;82.67
7480;BME280;3781;42.272;22.658;2023-02-12T00:55:20;95581.47;;;-4.28;81.96
7480;BME280;3781;42.272;22.658;2023-02-12T00:57:46;95538.56;;;-4.38;79.79
7480;BME280;3781;42.272;22.658;2023-02-12T01:00:14;95567.66;;;-4.09;78.27
7480;BME280;3781;42.272;22.658;2023-02-12T01:02:41;95569.31;;;-4.06;78.19
7480;BME280;3781;42.272;22.658;2023-02-12T01:05:08;95568.38;;;-4.02;77.63
7480;BME280;3781;42.272;22.658;2023-02-12T01:07:35;95557.97;;;-3.87;75.77
7480;BME280;3781;42.272;22.658;2023-02-12T01:10:04;95526.81;;;-3.92;74.48
7480;BME280;3781;42.272;22.658;2023-02-12T01:12:33;95549.13;;;-3.65;72.74
7480;BME280;3781;42.272;22.658;2023-02-12T01:15:00;95552.31;;;-3.54;72.27
7480;BME280;3781;42.272;22.658;2023-02-12T01:17:27;95546.56;;;-3.62;72.32
7480;BME280;3781;42.272;22.658;2023-02-12T01:19:56;95552.44;;;-3.60;72.51
7480;BME280;3781;42.272;22.658;2023-02-12T01:22:23;95541.88;;;-3.39;70.39
7480;BME280;3781;42.272;22.658;2023-02-12T01:24:49;95466.81;;;-3.52;67.89
7480;BME280;3781;42.272;22.658;2023-02-12T01:27:16;95507.19;;;-2.98;66.36
7480;BME280;3781;42.272;22.658;2023-02-12T01:29:44;95526.78;;;-2.65;65.60
7480;BME280;3781;42.272;22.658;2023-02-12T01:32:11;95525.59;;;-2.87;66.32
7480;BME280;3781;42.272;22.658;2023-02-12T01:34:38;95520.19;;;-3.12;67.83
7480;BME280;3781;42.272;22.658;2023-02-12T01:37:05;95516.56;;;-3.42;70.00
7480;BME280;3781;42.272;22.658;2023-02-12T01:39:31;95517.19;;;-3.75;73.04
7480;BME280;3781;42.272;22.658;2023-02-12T01:41:58;95494.09;;;-4.07;74.76
7480;BME280;3781;42.272;22.658;2023-02-12T01:44:28;95522.72;;;-4.02;76.60
7480;BME280;3781;42.272;22.658;2023-02-12T01:46:57;95483.63;;;-4.38;77.19
7480;BME280;3781;42.272;22.658;2023-02-12T01:49:27;95530.28;;;-4.49;79.53
7480;BME280;3781;42.272;22.658;2023-02-12T01:51:59;95537.50;;;-4.82;82.71
7480;BME280;3781;42.272;22.658;2023-02-12T01:54:28;95502.81;;;-5.39;86.89
7480;BME280;3781;42.272;22.658;2023-02-12T01:56:55;95517.16;;;-5.38;89.00
7480;BME280;3781;42.272;22.658;2023-02-12T01:59:23;95528.09;;;-5.36;89.98
7480;BME280;3781;42.272;22.658;2023-02-12T02:01:50;95523.22;;;-5.51;93.19
7480;BME280;3781;42.272;22.658;2023-02-12T02:04:21;95541.75;;;-5.49;94.72
7480;BME280;3781;42.272;22.658;2023-02-12T02:06:51;95513.38;;;-5.78;96.80
7480;BME280;3781;42.272;22.658;2023-02-12T02:09:19;95556.09;;;-5.50;98.43
7480;BME280;3781;42.272;22.658;2023-02-12T02:11:46;95554.41;;;-5.51;98.60
7480;BME280;3781;42.272;22.658;2023-02-12T02:14:30;95526.72;;;-5.63;98.28
7480;BME280;3781;42.272;22.658;2023-02-12T02:17:12;95542.44;;;-5.35;97.30
7480;BME280;3781;42.272;22.658;2023-02-12T02:22:53;95522.84;;;-5.21;97.34
7480;BME280;3781;42.272;22.658;2023-02-12T02:25:51;95521.13;;;-5.19;94.09
7480;BME280;3781;42.272;22.658;2023-02-12T02:28:32;95521.59;;;-5.58;95.70
7480;BME280;3781;42.272;22.658;2023-02-12T02:31:13;95518.53;;;-5.84;100.00
7480;BME280;3781;42.272;22.658;2023-02-12T02:33:51;95519.94;;;-5.59;100.00
7480;BME280;3781;42.272;22.658;2023-02-12T02:36:26;95492.56;;;-6.00;100.00
7480;BME280;3781;42.272;22.658;2023-02-12T02:39:02;95488.34;;;-5.99;100.00
7480;BME280;3781;42.272;22.658;2023-02-12T02:41:34;95516.34;;;-5.43;98.72
7480;BME280;3781;42.272;22.658;2023-02-12T02:44:06;95494.66;;;-5.62;98.84
7480;BME280;3781;42.272;22.658;2023-02-12T02:46:41;95530.66;;;-5.41;99.19
7480;BME280;3781;42.272;22.658;2023-02-12T02:49:17;95513.09;;;-5.51;99.03
7480;BME280;3781;42.272;22.658;2023-02-12T02:51:49;95538.91;;;-5.22;98.81
7480;BME280;3781;42.272;22.658;2023-02-12T02:54:20;95543.00;;;-5.15;99.46
7480;BME280;3781;42.272;22.658;2023-02-12T02:57:02;95536.19;;;-5.07;97.93
7480;BME280;3781;42.272;22.658;2023-02-12T02:59:33;95540.41;;;-5.10;99.97
7480;BME280;3781;42.272;22.658;2023-02-12T03:02:06;95539.38;;;-4.96;99.41
7480;BME280;3781;42.272;22.658;2023-02-12T03:04:38;95481.50;;;-5.23;98.58
7480;BME280;3781;42.272;22.658;2023-02-12T03:07:10;95525.44;;;-4.65;94.38
7480;BME280;3781;42.272;22.658;2023-02-12T03:09:40;95531.81;;;-4.97;95.04
7480;BME280;3781;42.272;22.658;2023-02-12T03:12:13;95543.97;;;-5.22;96.84
7480;BME280;3781;42.272;22.658;2023-02-12T03:14:43;95514.69;;;-5.44;97.76
7480;BME280;3781;42.272;22.658;2023-02-12T03:17:16;95504.38;;;-5.29;96.57
7480;BME280;3781;42.272;22.658;2023-02-12T03:19:46;95540.38;;;-5.09;96.10
7480;BME280;3781;42.272;22.658;2023-02-12T03:22:17;95516.81;;;-5.12;94.87
7480;BME280;3781;42.272;22.658;2023-02-12T03:24:49;95535.78;;;-4.80;93.90
7480;BME280;3781;42.272;22.658;2023-02-12T03:27:19;95527.59;;;-4.97;93.24
7480;BME280;3781;42.272;22.658;2023-02-12T03:29:48;95555.84;;;-4.65;94.60
7480;BME280;3781;42.272;22.658;2023-02-12T03:32:28;95558.84;;;-4.38;93.92
7480;BME280;3781;42.272;22.658;2023-02-12T03:35:12;95550.03;;;-4.16;88.65
7480;BME280;3781;42.272;22.658;2023-02-12T03:37:48;95560.63;;;-3.92;87.44
7480;BME280;3781;42.272;22.658;2023-02-12T03:40:20;95545.78;;;-3.67;82.37
7480;BME280;3781;42.272;22.658;2023-02-12T03:42:56;95552.84;;;-3.35;80.81
7480;BME280;3781;42.272;22.658;2023-02-12T03:45:37;95540.50;;;-3.12;78.07
7480;BME280;3781;42.272;22.658;2023-02-12T03:48:10;95532.63;;;-2.98;76.49
7480;BME280;3781;42.272;22.658;2023-02-12T03:50:45;95522.38;;;-2.95;78.14
7480;BME280;3781;42.272;22.658;2023-02-12T03:53:13;95509.56;;;-2.89;74.68
7480;BME280;3781;42.272;22.658;2023-02-12T03:55:42;95533.69;;;-2.70;76.45
7480;BME280;3781;42.272;22.658;2023-02-12T03:58:15;95522.31;;;-2.92;80.39
7480;BME280;3781;42.272;22.658;2023-02-12T04:00:44;95512.19;;;-2.95;83.06
7480;BME280;3781;42.272;22.658;2023-02-12T04:03:13;95482.84;;;-3.09;87.54
7480;BME280;3781;42.272;22.658;2023-02-12T04:05:40;95511.59;;;-3.07;88.21
7480;BME280;3781;42.272;22.658;2023-02-12T04:08:08;95497.97;;;-3.02;88.21
7480;BME280;3781;42.272;22.658;2023-02-12T04:10:43;95502.03;;;-2.95;89.14
7480;BME280;3781;42.272;22.658;2023-02-12T04:13:17;95499.31;;;-2.86;87.84
7480;BME280;3781;42.272;22.658;2023-02-12T04:15:56;95495.72;;;-2.78;85.48
7480;BME280;3781;42.272;22.658;2023-02-12T04:18:34;95501.66;;;-2.77;89.04
7480;BME280;3781;42.272;22.658;2023-02-12T04:21:10;95485.75;;;-2.87;90.76
7480;BME280;3781;42.272;22.658;2023-02-12T04:23:46;95499.84;;;-2.74;89.07
7480;BME280;3781;42.272;22.658;2023-02-12T04:26:21;95492.91;;;-3.04;88.49
7480;BME280;3781;42.272;22.658;2023-02-12T04:29:03;95408.91;;;-3.76;87.47
7480;BME280;3781;42.272;22.658;2023-02-12T04:31:39;95495.63;;;-3.54;87.99
7480;BME280;3781;42.272;22.658;2023-02-12T04:34:14;95501.56;;;-3.54;89.11
7480;BME280;3781;42.272;22.658;2023-02-12T04:36:46;95528.38;;;-3.41;87.34
7480;BME280;3781;42.272;22.658;2023-02-12T04:39:18;95531.75;;;-3.40;87.34
7480;BME280;3781;42.272;22.658;2023-02-12T04:41:46;95514.09;;;-3.46;86.88
7480;BME280;3781;42.272;22.658;2023-02-12T04:44:20;95519.81;;;-3.37;85.73
7480;BME280;3781;42.272;22.658;2023-02-12T04:46:48;95501.97;;;-3.32;84.32
7480;BME280;3781;42.272;22.658;2023-02-12T04:49:18;95491.53;;;-3.19;85.59
7480;BME280;3781;42.272;22.658;2023-02-12T04:51:46;95502.34;;;-3.11;86.02
7480;BME280;3781;42.272;22.658;2023-02-12T04:54:13;95506.16;;;-3.30;87.59
7480;BME280;3781;42.272;22.658;2023-02-12T04:56:40;95477.69;;;-3.44;85.17
7480;BME280;3781;42.272;22.658;2023-02-12T04:59:07;95494.16;;;-3.23;81.38
7480;BME280;3781;42.272;22.658;2023-02-12T05:01:36;95483.97;;;-3.22;82.56
7480;BME280;3781;42.272;22.658;2023-02-12T05:04:03;95467.22;;;-3.30;82.99
7480;BME280;3781;42.272;22.658;2023-02-12T05:06:33;95490.47;;;-3.09;83.49
7480;BME280;3781;42.272;22.658;2023-02-12T05:09:00;95491.41;;;-3.13;83.73
7480;BME280;3781;42.272;22.658;2023-02-12T05:11:27;95510.69;;;-3.02;84.30
7480;BME280;3781;42.272;22.658;2023-02-12T05:13:54;95491.47;;;-3.16;84.72
7480;BME280;3781;42.272;22.658;2023-02-12T05:16:21;95494.84;;;-3.15;84.83
7480;BME280;3781;42.272;22.658;2023-02-12T05:18:48;95362.25;;;-4.10;84.40
7480;BME280;3781;42.272;22.658;2023-02-12T05:21:15;95530.25;;;-3.08;83.60
7480;BME280;3781;42.272;22.658;2023-02-12T05:23:43;95531.25;;;-3.15;84.56
7480;BME280;3781;42.272;22.658;2023-02-12T05:26:12;95540.59;;;-3.17;86.95
7480;BME280;3781;42.272;22.658;2023-02-12T05:28:39;95547.03;;;-3.42;89.07
7480;BME280;3781;42.272;22.658;2023-02-12T05:31:08;95552.13;;;-3.43;90.41
7480;BME280;3781;42.272;22.658;2023-02-12T05:33:35;95557.50;;;-3.60;89.68
7480;BME280;3781;42.272;22.658;2023-02-12T05:36:03;95553.88;;;-3.47;88.35
7480;BME280;3781;42.272;22.658;2023-02-12T05:38:30;95556.44;;;-3.47;87.84
7480;BME280;3781;42.272;22.658;2023-02-12T05:41:02;95562.19;;;-3.39;87.57
7480;BME280;3781;42.272;22.658;2023-02-12T05:43:28;95562.59;;;-3.60;88.43
7480;BME280;3781;42.272;22.658;2023-02-12T05:45:57;95565.91;;;-3.55;90.35
7480;BME280;3781;42.272;22.658;2023-02-12T05:48:24;95535.78;;;-3.74;89.74
7480;BME280;3781;42.272;22.658;2023-02-12T05:50:51;95523.31;;;-3.87;89.23
7480;BME280;3781;42.272;22.658;2023-02-12T05:53:18;95512.06;;;-3.72;89.55
7480;BME280;3781;42.272;22.658;2023-02-12T05:55:45;95551.41;;;-3.50;88.16
7480;BME280;3781;42.272;22.658;2023-02-12T05:58:13;95578.94;;;-3.29;87.40
7480;BME280;3781;42.272;22.658;2023-02-12T06:00:40;95575.56;;;-3.29;86.97
7480;BME280;3781;42.272;22.658;2023-02-12T06:03:06;95552.03;;;-3.39;85.55
7480;BME280;3781;42.272;22.658;2023-02-12T06:05:33;95582.84;;;-3.13;85.45
7480;BME280;3781;42.272;22.658;2023-02-12T06:08:00;95540.34;;;-3.46;84.76
7480;BME280;3781;42.272;22.658;2023-02-12T06:10:26;95590.25;;;-3.00;84.52
7480;BME280;3781;42.272;22.658;2023-02-12T06:12:53;95586.59;;;-2.87;84.61
7480;BME280;3781;42.272;22.658;2023-02-12T06:15:22;95557.84;;;-2.89;84.70
7480;BME280;3781;42.272;22.658;2023-02-12T06:17:48;95589.44;;;-2.61;83.56
7480;BME280;3781;42.272;22.658;2023-02-12T06:20:15;95589.66;;;-2.73;85.43
7480;BME280;3781;42.272;22.658;2023-02-12T06:22:42;95589.66;;;-2.73;86.04
7480;BME280;3781;42.272;22.658;2023-02-12T06:25:09;95582.84;;;-2.70;86.20
7480;BME280;3781;42.272;22.658;2023-02-12T06:27:35;95592.88;;;-2.65;86.66
7480;BME280;3781;42.272;22.658;2023-02-12T06:30:02;95575.97;;;-2.66;88.00
7480;BME280;3781;42.272;22.658;2023-02-12T06:32:31;95584.97;;;-2.50;88.23
7480;BME280;3781;42.272;22.658;2023-02-12T06:34:57;95584.13;;;-2.52;87.94
7480;BME280;3781;42.272;22.658;2023-02-12T06:37:24;95570.22;;;-2.36;88.65
7480;BME280;3781;42.272;22.658;2023-02-12T06:39:51;95578.94;;;-2.11;86.97
7480;BME280;3781;42.272;22.658;2023-02-12T06:42:17;95578.88;;;-2.08;87.37
7480;BME280;3781;42.272;22.658;2023-02-12T06:44:44;95559.19;;;-2.35;86.13
7480;BME280;3781;42.272;22.658;2023-02-12T06:47:12;95583.22;;;-2.13;86.23
7480;BME280;3781;42.272;22.658;2023-02-12T06:49:40;95600.34;;;-2.18;86.40
7480;BME280;3781;42.272;22.658;2023-02-12T06:52:06;95545.59;;;-2.72;86.95
7480;BME280;3781;42.272;22.658;2023-02-12T06:54:33;95590.25;;;-3.00;90.14
7480;BME280;3781;42.272;22.658;2023-02-12T06:57:00;95593.00;;;-3.13;91.83
7480;BME280;3781;42.272;22.658;2023-02-12T06:59:27;95573.56;;;-3.14;92.86
7480;BME280;3781;42.272;22.658;2023-02-12T07:01:53;95587.09;;;-2.72;92.72
7480;BME280;3781;42.272;22.658;2023-02-12T07:04:20;95562.38;;;-2.65;91.85
7480;BME280;3781;42.272;22.658;2023-02-12T07:06:48;95559.97;;;-2.33;89.10
7480;BME280;3781;42.272;22.658;2023-02-12T07:09:16;95544.28;;;-2.15;86.14
7480;BME280;3781;42.272;22.658;2023-02-12T07:11:43;95570.50;;;-1.78;83.72
7480;BME280;3781;42.272;22.658;2023-02-12T07:14:13;95548.00;;;-1.61;83.09
7480;BME280;3781;42.272;22.658;2023-02-12T07:16:40;95539.09;;;-1.44;81.33
7480;BME280;3781;42.272;22.658;2023-02-12T07:19:06;95580.31;;;-0.98;79.37
7480;BME280;3781;42.272;22.658;2023-02-12T07:21:33;95550.47;;;-1.25;75.05
7480;BME280;3781;42.272;22.658;2023-02-12T07:24:01;95566.19;;;-1.10;75.77
7480;BME280;3781;42.272;22.658;2023-02-12T07:26:28;95566.91;;;-1.06;72.87
7480;BME280;3781;42.272;22.658;2023-02-12T07:28:56;95566.81;;;-0.72;71.66
7480;BME280;3781;42.272;22.658;2023-02-12T07:31:23;95553.94;;;-0.68;71.05
7480;BME280;3781;42.272;22.658;2023-02-12T07:33:53;95563.88;;;-0.59;70.25
7480;BME280;3781;42.272;22.658;2023-02-12T07:36:20;95562.31;;;-0.35;69.54
7480;BME280;3781;42.272;22.658;2023-02-12T07:38:47;95530.56;;;-0.54;69.13
7480;BME280;3781;42.272;22.658;2023-02-12T07:41:17;95567.78;;;-0.20;68.44
7480;BME280;3781;42.272;22.658;2023-02-12T07:43:45;95560.44;;;-0.03;67.88
7480;BME280;3781;42.272;22.658;2023-02-12T07:46:14;95572.78;;;-0.17;67.80
7480;BME280;3781;42.272;22.658;2023-02-12T07:48:41;95574.53;;;-0.19;69.20
7480;BME280;3781;42.272;22.658;2023-02-12T07:51:11;95572.13;;;-0.51;71.70
7480;BME280;3781;42.272;22.658;2023-02-12T07:53:38;95582.00;;;-0.68;71.83
7480;BME280;3781;42.272;22.658;2023-02-12T07:56:06;95581.47;;;-0.79;71.90
7480;BME280;3781;42.272;22.658;2023-02-12T07:58:35;95570.06;;;-0.97;71.63
7480;BME280;3781;42.272;22.658;2023-02-12T08:01:11;95557.38;;;-1.30;73.73
7480;BME280;3781;42.272;22.658;2023-02-12T08:03:38;95549.03;;;-1.35;74.24
7480;BME280;3781;42.272;22.658;2023-02-12T08:06:07;95571.94;;;-1.34;74.51
7480;BME280;3781;42.272;22.658;2023-02-12T08:08:34;95577.03;;;-1.03;73.92
7480;BME280;3781;42.272;22.658;2023-02-12T08:11:03;95580.63;;;-0.80;72.89
7480;BME280;3781;42.272;22.658;2023-02-12T08:13:30;95569.50;;;-0.77;72.29
7480;BME280;3781;42.272;22.658;2023-02-12T08:16:00;95540.56;;;-1.05;72.82
7480;BME280;3781;42.272;22.658;2023-02-12T08:18:29;95567.91;;;-0.81;72.84
7480;BME280;3781;42.272;22.658;2023-02-12T08:21:00;95559.91;;;-0.98;72.87
7480;BME280;3781;42.272;22.658;2023-02-12T08:23:27;95571.34;;;-0.82;73.47
7480;BME280;3781;42.272;22.658;2023-02-12T08:25:54;95584.81;;;-0.77;73.01
7480;BME280;3781;42.272;22.658;2023-02-12T08:28:20;95581.09;;;-0.67;72.18
7480;BME280;3781;42.272;22.658;2023-02-12T08:30:47;95586.47;;;-0.47;71.89
7480;BME280;3781;42.272;22.658;2023-02-12T08:33:15;95589.81;;;-0.45;71.66
7480;BME280;3781;42.272;22.658;2023-02-12T08:35:42;95589.66;;;-0.40;71.24
7480;BME280;3781;42.272;22.658;2023-02-12T08:38:09;95598.16;;;-0.40;72.38
7480;BME280;3781;42.272;22.658;2023-02-12T08:40:36;95608.00;;;-0.28;72.69
7480;BME280;3781;42.272;22.658;2023-02-12T08:43:02;95603.59;;;-0.23;73.52
7480;BME280;3781;42.272;22.658;2023-02-12T08:45:29;95579.19;;;-0.59;74.66
7480;BME280;3781;42.272;22.658;2023-02-12T08:47:58;95601.50;;;-0.67;76.68
7480;BME280;3781;42.272;22.658;2023-02-12T08:50:26;95561.31;;;-1.19;78.51
7480;BME280;3781;42.272;22.658;2023-02-12T08:52:52;95612.13;;;-0.82;77.62
7480;BME280;3781;42.272;22.658;2023-02-12T08:55:19;95603.81;;;-0.87;78.13
7480;BME280;3781;42.272;22.658;2023-02-12T08:57:46;95525.09;;;-1.28;77.64
7480;BME280;3781;42.272;22.658;2023-02-12T09:00:13;95616.66;;;-0.61;77.28
7480;BME280;3781;42.272;22.658;2023-02-12T09:02:40;95615.56;;;-0.52;77.15
7480;BME280;3781;42.272;22.658;2023-02-12T09:05:07;95622.69;;;-0.63;76.79
7480;BME280;3781;42.272;22.658;2023-02-12T09:07:35;95626.09;;;-0.64;76.88
7480;BME280;3781;42.272;22.658;2023-02-12T09:10:02;95623.50;;;-0.63;76.47
7480;BME280;3781;42.272;22.658;2023-02-12T09:12:28;95631.50;;;-0.75;76.45
7480;BME280;3781;42.272;22.658;2023-02-12T09:14:55;95632.09;;;-0.67;76.81
7480;BME280;3781;42.272;22.658;2023-02-12T09:17:22;95623.91;;;-0.47;75.56
7480;BME280;3781;42.272;22.658;2023-02-12T09:19:51;95629.19;;;-0.53;75.86
7480;BME280;3781;42.272;22.658;2023-02-12T09:22:18;95629.47;;;-0.35;76.08
7480;BME280;3781;42.272;22.658;2023-02-12T09:24:46;95624.09;;;-0.26;75.22
7480;BME280;3781;42.272;22.658;2023-02-12T09:27:13;95626.13;;;-0.08;75.44
7480;BME280;3781;42.272;22.658;2023-02-12T09:29:40;95624.84;;;0.06;75.87
7480;BME280;3781;42.272;22.658;2023-02-12T09:32:06;95633.88;;;0.17;76.10
7480;BME280;3781;42.272;22.658;2023-02-12T09:34:34;95631.19;;;0.22;76.05
7480;BME280;3781;42.272;22.658;2023-02-12T09:37:00;95629.66;;;0.42;75.89
7480;BME280;3781;42.272;22.658;2023-02-12T09:39:27;95634.81;;;0.67;76.25
7480;BME280;3781;42.272;22.658;2023-02-12T09:42:23;95637.50;;;0.87;75.74
7480;BME280;3781;42.272;22.658;2023-02-12T09:44:59;95648.81;;;1.06;75.36
7480;BME280;3781;42.272;22.658;2023-02-12T09:47:35;95646.59;;;0.71;73.33
7480;BME280;3781;42.272;22.658;2023-02-12T09:50:28;95634.63;;;0.47;74.67
7480;BME280;3781;42.272;22.658;2023-02-12T09:52:58;95651.84;;;0.40;75.10
7480;BME280;3781;42.272;22.658;2023-02-12T09:55:28;95651.63;;;0.48;75.28
7480;BME280;3781;42.272;22.658;2023-02-12T09:57:57;95644.69;;;0.51;74.70
7480;BME280;3781;42.272;22.658;2023-02-12T10:00:26;95629.69;;;0.67;74.64
7480;BME280;3781;42.272;22.658;2023-02-12T10:02:56;95641.66;;;0.91;74.50
7480;BME280;3781;42.272;22.658;2023-02-12T10:05:31;95659.41;;;1.20;73.93
7480;BME280;3781;42.272;22.658;2023-02-12T10:08:27;95634.19;;;1.34;73.07
7480;BME280;3781;42.272;22.658;2023-02-12T10:11:12;95643.72;;;1.29;72.10
7480;BME280;3781;42.272;22.658;2023-02-12T10:13:47;95639.84;;;1.19;72.65
7480;BME280;3781;42.272;22.658;2023-02-12T10:16:31;95640.56;;;1.23;72.94
7480;BME280;3781;42.272;22.658;2023-02-12T10:19:18;95644.28;;;1.37;72.71
7480;BME280;3781;42.272;22.658;2023-02-12T10:21:58;95614.50;;;1.12;73.86
7480;BME280;3781;42.272;22.658;2023-02-12T10:24:51;95654.44;;;1.40;73.58
7480;BME280;3781;42.272;22.658;2023-02-12T10:27:32;95654.53;;;1.37;73.49
7480;BME280;3781;42.272;22.658;2023-02-12T10:30:13;95652.97;;;1.33;73.90
7480;BME280;3781;42.272;22.658;2023-02-12T10:32:45;95661.88;;;1.23;74.26
7480;BME280;3781;42.272;22.658;2023-02-12T10:35:14;95651.72;;;1.20;75.23
7480;BME280;3781;42.272;22.658;2023-02-12T10:37:47;95645.13;;;1.13;75.60
7480;BME280;3781;42.272;22.658;2023-02-12T10:40:17;95656.13;;;1.17;75.82
7480;BME280;3781;42.272;22.658;2023-02-12T10:42:49;95650.78;;;1.23;76.01
7480;BME280;3781;42.272;22.658;2023-02-12T10:45:20;95648.75;;;1.32;75.45
7480;BME280;3781;42.272;22.658;2023-02-12T10:47:51;95605.22;;;1.09;75.29
7480;BME280;3781;42.272;22.658;2023-02-12T10:50:23;95653.88;;;1.32;75.66
7480;BME280;3781;42.272;22.658;2023-02-12T10:52:55;95630.72;;;1.35;74.22
7480;BME280;3781;42.272;22.658;2023-02-12T10:55:27;95636.13;;;1.51;73.26
7480;BME280;3781;42.272;22.658;2023-02-12T10:57:54;95645.34;;;1.55;73.54
7480;BME280;3781;42.272;22.658;2023-02-12T11:00:25;95626.50;;;1.58;72.91
7480;BME280;3781;42.272;22.658;2023-02-12T11:03:19;95641.06;;;1.79;72.69
7480;BME280;3781;42.272;22.658;2023-02-12T11:05:47;95644.13;;;1.88;72.50
7480;BME280;3781;42.272;22.658;2023-02-12T11:08:32;95643.13;;;1.92;72.46
7480;BME280;3781;42.272;22.658;2023-02-12T11:11:05;95642.94;;;1.97;72.36
7480;BME280;3781;42.272;22.658;2023-02-12T11:13:33;95647.38;;;2.15;71.49
7480;BME280;3781;42.272;22.658;2023-02-12T11:16:02;95642.47;;;2.09;71.25
7480;BME280;3781;42.272;22.658;2023-02-12T11:18:31;95660.66;;;2.24;71.12
7480;BME280;3781;42.272;22.658;2023-02-12T11:21:00;95658.75;;;2.08;71.98
7480;BME280;3781;42.272;22.658;2023-02-12T11:23:29;95661.97;;;2.13;71.90
7480;BME280;3781;42.272;22.658;2023-02-12T11:25:58;95653.03;;;2.45;71.29
7480;BME280;3781;42.272;22.658;2023-02-12T11:28:26;95650.22;;;2.51;71.02
7480;BME280;3781;42.272;22.658;2023-02-12T11:30:57;95656.81;;;2.78;70.38
7480;BME280;3781;42.272;22.658;2023-02-12T11:33:33;95661.25;;;2.94;69.30
7480;BME280;3781;42.272;22.658;2023-02-12T11:36:03;95636.22;;;2.79;69.71
7480;BME280;3781;42.272;22.658;2023-02-12T11:38:33;95661.66;;;3.05;68.65
7480;BME280;3781;42.272;22.658;2023-02-12T11:41:13;95659.84;;;3.08;68.42
7480;BME280;3781;42.272;22.658;2023-02-12T11:43:45;95653.94;;;3.05;68.43
7480;BME280;3781;42.272;22.658;2023-02-12T11:46:18;95665.69;;;3.11;67.86
7480;BME280;3781;42.272;22.658;2023-02-12T11:48:48;95675.53;;;3.22;67.40
7480;BME280;3781;42.272;22.658;2023-02-12T11:51:23;95655.13;;;3.37;66.82
7480;BME280;3781;42.272;22.658;2023-02-12T11:53:52;95666.91;;;3.43;66.03
7480;BME280;3781;42.272;22.658;2023-02-12T11:56:20;95658.25;;;3.45;66.00
7480;BME280;3781;42.272;22.658;2023-02-12T11:58:47;95651.34;;;3.46;65.77
7480;BME280;3781;42.272;22.658;2023-02-12T12:01:18;95649.41;;;3.32;66.64
7480;BME280;3781;42.272;22.658;2023-02-12T12:03:57;95656.63;;;3.43;66.48
7480;BME280;3781;42.272;22.658;2023-02-12T12:06:30;95659.56;;;3.54;66.46
7480;BME280;3781;42.272;22.658;2023-02-12T12:09:03;95661.22;;;3.55;65.79
7480;BME280;3781;42.272;22.658;2023-02-12T12:11:37;95660.06;;;3.62;65.81
7480;BME280;3781;42.272;22.658;2023-02-12T12:14:13;95658.50;;;3.78;65.25
7480;BME280;3781;42.272;22.658;2023-02-12T12:16:48;95654.19;;;3.97;64.38
7480;BME280;3781;42.272;22.658;2023-02-12T12:19:41;95647.94;;;4.21;63.31
7480;BME280;3781;42.272;22.658;2023-02-12T12:22:39;95660.16;;;4.35;63.29
7480;BME280;3781;42.272;22.658;2023-02-12T12:25:15;95623.09;;;4.39;62.29
7480;BME280;3781;42.272;22.658;2023-02-12T12:27:55;95659.50;;;4.84;62.21
7480;BME280;3781;42.272;22.658;2023-02-12T12:30:40;95657.91;;;4.99;62.21
7480;BME280;3781;42.272;22.658;2023-02-12T12:33:16;95659.41;;;5.03;61.78
7480;BME280;3781;42.272;22.658;2023-02-12T12:35:57;95653.25;;;5.57;61.81
7480;BME280;3781;42.272;22.658;2023-02-12T12:38:36;95657.84;;;5.67;61.19
7480;BME280;3781;42.272;22.658;2023-02-12T12:41:12;95657.59;;;5.89;61.78
7480;BME280;3781;42.272;22.658;2023-02-12T12:43:50;95664.59;;;6.02;60.84
7480;BME280;3781;42.272;22.658;2023-02-12T12:46:44;95667.78;;;6.23;59.91
7480;BME280;3781;42.272;22.658;2023-02-12T12:49:31;95664.13;;;6.27;59.80
7480;BME280;3781;42.272;22.658;2023-02-12T12:52:22;95656.28;;;6.29;58.69
7480;BME280;3781;42.272;22.658;2023-02-12T12:55:06;95660.94;;;6.38;58.99
7480;BME280;3781;42.272;22.658;2023-02-12T12:57:46;95641.25;;;6.37;58.50
7480;BME280;3781;42.272;22.658;2023-02-12T13:00:46;95663.78;;;6.18;59.26
7480;BME280;3781;42.272;22.658;2023-02-12T13:03:41;95674.91;;;6.02;59.39
7480;BME280;3781;42.272;22.658;2023-02-12T13:06:31;95660.00;;;5.75;59.89
7480;BME280;3781;42.272;22.658;2023-02-12T13:15:11;95680.47;;;5.28;61.89
7480;BME280;3781;42.272;22.658;2023-02-12T13:17:44;95687.06;;;5.16;62.53
7480;BME280;3781;42.272;22.658;2023-02-12T13:20:18;95685.03;;;5.06;62.30
7480;BME280;3781;42.272;22.658;2023-02-12T13:22:51;95688.00;;;5.15;62.58
7480;BME280;3781;42.272;22.658;2023-02-12T13:25:27;95685.44;;;5.65;61.74
7480;BME280;3781;42.272;22.658;2023-02-12T13:27:58;95675.78;;;5.86;60.55
7480;BME280;3781;42.272;22.658;2023-02-12T13:30:29;95689.03;;;5.95;60.30
7480;BME280;3781;42.272;22.658;2023-02-12T13:33:04;95692.00;;;6.21;59.30
7480;BME280;3781;42.272;22.658;2023-02-12T13:35:36;95682.44;;;6.54;58.93
7480;BME280;3781;42.272;22.658;2023-02-12T13:38:07;95696.00;;;7.48;56.35
7480;BME280;3781;42.272;22.658;2023-02-12T13:40:36;95670.97;;;7.48;55.79
7480;BME280;3781;42.272;22.658;2023-02-12T13:43:10;95683.88;;;7.48;55.39
7480;BME280;3781;42.272;22.658;2023-02-12T13:45:48;95695.50;;;7.12;56.23